Ana Sayfa
METAR-TAF:

METAR-TAF

Havaalanları :

Skyhaven Airport

Rochester, New Hampshire, Amerika Birleşik Devletleri

Enlem: 43-16-41N, Boylam: 070-55-20W, yükseklik: 98 m

Güncel hava durumu gözlemi

Rapor saat 06:32 UTC de 21 dakika önce yapıldı.
Rüzgar doğu/güneydoğudan 3 kt
Sıcaklık 16°C
Nem 94%
Basınç 1008 hPa
Görüş mesafesi: 2.4 km
200 ft yükseklikte çok bulutlu
Pus

METAR: KDAW 200632Z AUTO 11003KT 1 1/2SM BR OVC002 16/15 A2977 RMK AO2 T01610150

Saat: 02:53 (06:53 UTC)


TAF: eksik

4.000'den fazla havaalanı için hava durumu gözlemleri ve tahminleri (METAR ve TAF raporları).

Kullanılabilir istasyonlar harita üzerinde sarı ve kırmızı noktalarla gösterilir.

İstasyonun adını görmek için fareyi noktanın üzerinde gezdirin.

Sonrasında hava gözlem ve tahminlerini görmek için tıklayın.

Haritayı değiştirmek için: yaklaştırmak için siyah artı işaretli yeşil düğmeye ve uzaklaştırmak için de eksi işaretli düğmeye hızla tıklayın; bitişik haritalar için yeşil okları kullanın.


METAR-TAF: